createdAt,value
2019-05-22T00:02:31.976Z,98160.28
2019-05-22T00:06:43.810Z,98156.53
2019-05-22T00:10:49.732Z,98154.81
2019-05-22T00:14:56.634Z,98162.28
2019-05-22T00:19:03.480Z,98164.60
2019-05-22T00:23:10.824Z,98167.38
2019-05-22T00:27:17.998Z,98165.90
2019-05-22T00:31:28.476Z,98170.97
2019-05-22T00:35:37.038Z,98172.67
2019-05-22T00:39:43.369Z,98179.78
2019-05-22T00:43:51.610Z,98176.62
2019-05-22T00:47:58.149Z,98173.05
2019-05-22T00:52:20.637Z,98170.98
2019-05-22T00:56:32.754Z,98171.05
2019-05-22T01:00:44.842Z,98176.89
2019-05-22T01:04:52.120Z,98181.70
2019-05-22T01:09:05.775Z,98178.70
2019-05-22T01:13:12.051Z,98176.31
2019-05-22T01:17:19.956Z,98181.73
2019-05-22T01:21:26.322Z,98185.69
2019-05-22T01:25:34.457Z,98188.52
2019-05-22T01:29:41.830Z,98182.13
2019-05-22T01:33:52.486Z,98182.25
2019-05-22T01:37:59.875Z,98182.13
2019-05-22T01:42:10.538Z,98173.78
2019-05-22T01:46:17.117Z,98183.28
2019-05-22T01:50:50.042Z,98177.34
2019-05-22T01:54:58.600Z,98185.45
2019-05-22T01:59:05.444Z,98182.56
2019-05-22T02:03:14.723Z,98183.46
2019-05-22T02:07:20.814Z,98186.82
2019-05-22T02:11:28.296Z,98184.51
2019-05-22T02:15:35.927Z,98184.48
2019-05-22T02:19:41.917Z,98172.20
2019-05-22T02:23:48.750Z,98178.40
2019-05-22T02:27:56.714Z,98177.64
2019-05-22T02:32:04.286Z,98182.55
2019-05-22T02:36:12.051Z,98185.59
2019-05-22T02:40:26.135Z,98181.28
2019-05-22T02:44:32.633Z,98188.05
2019-05-22T02:48:42.477Z,98187.15
2019-05-22T02:52:50.845Z,98189.55
2019-05-22T02:56:57.206Z,98196.41
2019-05-22T03:01:05.695Z,98198.78
2019-05-22T03:05:13.278Z,98198.94
2019-05-22T03:09:23.730Z,98207.72
2019-05-22T03:14:01.172Z,98207.56
2019-05-22T03:18:11.080Z,98209.69
2019-05-22T03:22:34.677Z,98211.20
2019-05-22T03:26:48.635Z,98211.30
2019-05-22T03:30:55.602Z,98217.08
2019-05-22T03:35:01.370Z,98216.53
2019-05-22T03:39:12.087Z,98217.30
2019-05-22T03:43:25.830Z,98219.55
2019-05-22T03:47:32.450Z,98217.31
2019-05-22T03:51:38.352Z,98222.52
2019-05-22T03:55:45.174Z,98229.28
2019-05-22T03:59:51.203Z,98225.39
2019-05-22T04:03:58.590Z,98223.56
2019-05-22T04:08:06.184Z,98225.80
2019-05-22T04:12:13.493Z,98230.03
2019-05-22T04:16:28.810Z,98231.25
2019-05-22T04:20:35.169Z,98237.57
2019-05-22T04:24:41.486Z,98238.16
2019-05-22T04:28:52.136Z,98246.33
2019-05-22T04:32:58.525Z,98243.89
2019-05-22T04:37:05.531Z,98248.77
2019-05-22T04:41:15.106Z,98256.59
2019-05-22T04:45:21.882Z,98252.58
2019-05-22T04:49:27.849Z,98254.53
2019-05-22T04:53:34.146Z,98253.67
2019-05-22T04:57:41.009Z,98262.41
2019-05-22T05:01:48.372Z,98272.52
2019-05-22T05:05:56.127Z,98276.98
2019-05-22T05:10:02.057Z,98277.95
2019-05-22T05:14:07.906Z,98277.03
2019-05-22T05:18:14.638Z,98284.13
2019-05-22T05:22:30.794Z,98277.39
2019-05-22T05:26:38.548Z,98283.22
2019-05-22T05:30:44.431Z,98286.20
2019-05-22T05:34:54.837Z,98287.46
2019-05-22T05:39:01.653Z,98290.39
2019-05-22T05:43:09.994Z,98290.91
2019-05-22T05:47:16.188Z,98296.36
2019-05-22T05:51:25.651Z,98295.25
2019-05-22T05:55:48.313Z,98298.73
2019-05-22T05:59:55.015Z,98296.20
2019-05-22T06:04:03.285Z,98308.48
2019-05-22T06:08:09.524Z,98306.42
2019-05-22T06:12:15.881Z,98303.88
2019-05-22T06:16:26.645Z,98303.88
2019-05-22T06:20:33.242Z,98304.70
2019-05-22T06:24:52.417Z,98310.70
2019-05-22T06:28:58.549Z,98312.64
2019-05-22T06:33:13.574Z,98316.48
2019-05-22T06:37:47.534Z,98320.23
2019-05-22T06:41:54.353Z,98322.25
2019-05-22T06:46:00.193Z,98332.81
2019-05-22T06:50:08.328Z,98330.99
2019-05-22T06:54:14.114Z,98333.80
2019-05-22T06:58:20.245Z,98342.19
2019-05-22T07:02:26.750Z,98340.33
2019-05-22T07:06:34.201Z,98337.20
2019-05-22T07:10:41.405Z,98345.30
2019-05-22T07:14:57.847Z,98351.55
2019-05-22T07:19:07.281Z,98347.17
2019-05-22T07:23:15.056Z,98349.89
2019-05-22T07:27:25.930Z,98355.42
2019-05-22T07:31:32.158Z,98350.28
2019-05-22T07:35:56.353Z,98354.98
2019-05-22T07:39:47.667Z,98356.31
2019-05-22T07:43:53.661Z,98362.87
2019-05-22T07:48:01.027Z,98362.59
2019-05-22T07:52:08.115Z,98354.88
2019-05-22T07:56:16.213Z,98357.25
2019-05-22T08:00:23.113Z,98360.87
2019-05-22T08:04:31.723Z,98362.98
2019-05-22T08:08:39.918Z,98363.67
2019-05-22T08:12:45.683Z,98362.36
2019-05-22T08:16:52.636Z,98369.73
2019-05-22T08:21:00.175Z,98381.28
2019-05-22T08:25:08.937Z,98380.59
2019-05-22T08:29:17.070Z,98379.33
2019-05-22T08:33:25.039Z,98379.84
2019-05-22T08:41:41.467Z,98381.69
2019-05-22T08:45:47.364Z,98381.73
2019-05-22T08:49:54.054Z,98386.76
2019-05-22T08:54:00.827Z,98386.38
2019-05-22T08:58:07.730Z,98391.25
2019-05-22T09:02:15.077Z,98396.66
2019-05-22T09:06:21.195Z,98392.80
2019-05-22T09:10:27.087Z,98397.23
2019-05-22T09:14:32.898Z,98391.52
2019-05-22T09:18:39.041Z,98388.30
2019-05-22T09:22:47.097Z,98390.11
2019-05-22T09:26:53.166Z,98383.95
2019-05-22T09:30:59.842Z,98388.16
2019-05-22T09:35:09.901Z,98395.73
2019-05-22T09:39:16.097Z,98395.47
2019-05-22T09:43:22.321Z,98403.85
2019-05-22T09:47:29.272Z,98412.70
2019-05-22T09:51:35.051Z,98406.92
2019-05-22T09:55:40.775Z,98408.19
2019-05-22T09:59:46.721Z,98415.23
2019-05-22T10:03:53.544Z,98417.46
2019-05-22T10:08:02.117Z,98420.92
2019-05-22T10:12:08.986Z,98420.91
2019-05-22T10:16:15.805Z,98427.65
2019-05-22T10:20:22.976Z,98424.66
2019-05-22T10:24:29.188Z,98421.63
2019-05-22T10:28:35.993Z,98423.19
2019-05-22T10:32:41.961Z,98415.94
2019-05-22T10:36:48.154Z,98424.02
2019-05-22T10:40:58.530Z,98413.54
2019-05-22T10:45:02.293Z,98422.69
2019-05-22T10:49:08.214Z,98423.13
2019-05-22T10:53:30.582Z,98431.54
2019-05-22T10:57:23.450Z,98421.48
2019-05-22T11:01:30.753Z,98422.79
2019-05-22T11:05:37.368Z,98428.60
2019-05-22T11:09:44.615Z,98421.54
2019-05-22T11:14:00.614Z,98427.14
2019-05-22T11:17:58.781Z,98431.95
2019-05-22T11:22:06.418Z,98425.27
2019-05-22T11:26:15.415Z,98425.61
2019-05-22T11:30:22.990Z,98423.45
2019-05-22T11:34:29.601Z,98422.94
2019-05-22T11:38:35.503Z,98418.47
2019-05-22T11:42:41.763Z,98422.42
2019-05-22T11:46:50.158Z,98416.45
2019-05-22T11:51:01.070Z,98411.28
2019-05-22T11:55:09.305Z,98417.09
2019-05-22T11:59:16.403Z,98419.23
2019-05-22T12:03:24.756Z,98419.67
2019-05-22T12:07:30.523Z,98418.97
2019-05-22T12:11:36.869Z,98421.50
2019-05-22T12:15:42.889Z,98418.44
2019-05-22T12:19:49.081Z,98425.34
2019-05-22T12:23:55.204Z,98428.05
2019-05-22T12:28:01.464Z,98433.91
2019-05-22T12:32:09.560Z,98426.73
2019-05-22T12:36:15.722Z,98419.83
2019-05-22T12:40:25.709Z,98420.17
2019-05-22T12:44:31.569Z,98430.13
2019-05-22T12:48:42.798Z,98430.86
2019-05-22T12:52:50.643Z,98430.30
2019-05-22T12:56:56.740Z,98432.48
2019-05-22T13:01:03.579Z,98428.45
2019-05-22T13:05:14.298Z,98424.83
2019-05-22T13:09:18.324Z,98420.63
2019-05-22T13:13:24.562Z,98424.33
2019-05-22T13:17:33.296Z,98422.14
2019-05-22T13:21:40.576Z,98419.94
2019-05-22T13:25:47.296Z,98418.97
2019-05-22T13:29:55.329Z,98416.45
2019-05-22T13:34:03.314Z,98409.89
2019-05-22T13:38:09.610Z,98419.79
2019-05-22T13:42:15.549Z,98417.27
2019-05-22T13:46:21.488Z,98409.91
2019-05-22T13:50:28.995Z,98408.98
2019-05-22T13:54:35.949Z,98412.80
2019-05-22T13:58:42.564Z,98406.98
2019-05-22T14:02:48.869Z,98408.95
2019-05-22T14:06:54.878Z,98406.77
2019-05-22T14:11:00.825Z,98412.59
2019-05-22T14:15:11.610Z,98412.40
2019-05-22T14:19:18.164Z,98406.77
2019-05-22T14:23:24.520Z,98402.38
2019-05-22T14:27:30.458Z,98405.00
2019-05-22T14:31:37.380Z,98405.47
2019-05-22T14:35:48.823Z,98405.28
2019-05-22T14:39:52.121Z,98409.86
2019-05-22T14:43:58.410Z,98410.18
2019-05-22T14:48:04.898Z,98410.83
2019-05-22T14:52:11.538Z,98398.19
2019-05-22T14:56:18.539Z,98394.78
2019-05-22T15:00:24.758Z,98394.92
2019-05-22T15:04:32.103Z,98398.23
2019-05-22T15:08:38.014Z,98402.14
2019-05-22T15:12:43.976Z,98394.48
2019-05-22T15:16:49.988Z,98393.09
2019-05-22T15:21:02.420Z,98391.66
2019-05-22T15:25:10.015Z,98387.83
2019-05-22T15:29:16.339Z,98390.91
2019-05-22T15:33:22.917Z,98386.86
2019-05-22T15:37:29.732Z,98384.03
2019-05-22T15:41:38.182Z,98382.64
2019-05-22T15:45:45.324Z,98383.14
2019-05-22T15:49:51.038Z,98386.45
2019-05-22T15:54:00.695Z,98391.61
2019-05-22T15:58:07.889Z,98396.91
2019-05-22T16:02:16.407Z,98404.69
2019-05-22T16:06:26.366Z,98394.59
2019-05-22T16:10:32.254Z,98397.84
2019-05-22T16:14:39.253Z,98393.91
2019-05-22T16:18:49.281Z,98391.90
2019-05-22T16:22:56.050Z,98392.16
2019-05-22T16:27:02.325Z,98399.36
2019-05-22T16:31:10.504Z,98397.30
2019-05-22T16:35:16.807Z,98396.38
2019-05-22T16:39:23.929Z,98397.71
2019-05-22T16:43:47.354Z,98398.77
2019-05-22T16:47:38.309Z,98400.28
2019-05-22T16:51:46.469Z,98404.94
2019-05-22T16:55:52.244Z,98405.61
2019-05-22T16:59:58.750Z,98403.00
2019-05-22T17:04:06.215Z,98400.02
2019-05-22T17:08:13.571Z,98393.91
2019-05-22T17:12:20.379Z,98394.50
2019-05-22T17:16:27.371Z,98399.81
2019-05-22T17:20:33.928Z,98395.58
2019-05-22T17:24:40.218Z,98394.09
2019-05-22T17:28:46.901Z,98395.80
2019-05-22T17:32:53.191Z,98398.61
2019-05-22T17:37:00.465Z,98396.67
2019-05-22T17:41:08.407Z,98396.99
2019-05-22T17:45:18.037Z,98407.66
2019-05-22T17:49:24.598Z,98411.61
2019-05-22T17:53:30.925Z,98412.00
2019-05-22T17:57:37.734Z,98413.86
2019-05-22T18:01:43.844Z,98416.48
2019-05-22T18:05:50.239Z,98417.81
2019-05-22T18:09:56.470Z,98417.38
2019-05-22T18:14:04.675Z,98424.55
2019-05-22T18:18:11.282Z,98420.12
2019-05-22T18:22:17.133Z,98424.81
2019-05-22T18:26:23.410Z,98430.34
2019-05-22T18:30:30.828Z,98433.98
2019-05-22T18:34:36.589Z,98438.87
2019-05-22T18:38:42.342Z,98447.17
2019-05-22T18:42:48.902Z,98446.61
2019-05-22T18:46:54.854Z,98447.58
2019-05-22T18:51:01.084Z,98444.06
2019-05-22T18:55:07.949Z,98452.20
2019-05-22T18:59:13.813Z,98450.69
2019-05-22T19:03:19.754Z,98456.16
2019-05-22T19:07:25.584Z,98463.89
2019-05-22T19:11:31.422Z,98463.20
2019-05-22T19:15:37.580Z,98463.96
2019-05-22T19:19:52.955Z,98468.63
2019-05-22T19:23:58.956Z,98476.11
2019-05-22T19:28:05.102Z,98477.19
2019-05-22T19:32:11.002Z,98481.78
2019-05-22T19:36:16.763Z,98481.79
2019-05-22T19:40:25.580Z,98490.37
2019-05-22T19:44:32.154Z,98501.84
2019-05-22T19:48:38.008Z,98504.77
2019-05-22T19:52:44.745Z,98509.10
2019-05-22T19:56:51.993Z,98510.32
2019-05-22T20:00:57.878Z,98508.62
2019-05-22T20:05:06.901Z,98514.98
2019-05-22T20:09:13.360Z,98517.78
2019-05-22T20:13:22.014Z,98514.52
2019-05-22T20:17:28.196Z,98525.25
2019-05-22T20:21:34.763Z,98526.34
2019-05-22T20:25:43.477Z,98533.62
2019-05-22T20:29:49.830Z,98526.86
2019-05-22T20:33:55.771Z,98530.09
2019-05-22T20:38:02.175Z,98536.75
2019-05-22T20:42:09.488Z,98526.41
2019-05-22T20:46:18.667Z,98522.58
2019-05-22T20:50:26.138Z,98537.58
2019-05-22T20:54:32.720Z,98533.02
2019-05-22T20:58:40.190Z,98537.66
2019-05-22T21:02:46.781Z,98534.59
2019-05-22T21:07:00.505Z,98532.22
2019-05-22T21:11:08.793Z,98531.05
2019-05-22T21:15:16.094Z,98526.80
2019-05-22T21:19:24.152Z,98530.20
2019-05-22T21:23:31.179Z,98532.97
2019-05-22T21:27:38.488Z,98538.25
2019-05-22T21:31:47.475Z,98532.56
2019-05-22T21:35:52.891Z,98533.48
2019-05-22T21:39:59.274Z,98533.83
2019-05-22T21:44:05.313Z,98533.79
2019-05-22T21:52:19.028Z,98528.32
2019-05-22T21:56:25.161Z,98517.09
2019-05-22T22:00:39.587Z,98519.09
2019-05-22T22:04:46.760Z,98515.37
2019-05-22T22:08:53.833Z,98520.48
2019-05-22T22:12:59.802Z,98518.64
2019-05-22T22:17:07.653Z,98521.22
2019-05-22T22:21:15.359Z,98531.61
2019-05-22T22:25:23.991Z,98527.63
2019-05-22T22:29:30.306Z,98525.78
2019-05-22T22:33:40.017Z,98528.16
2019-05-22T22:37:46.596Z,98532.44
2019-05-22T22:41:54.075Z,98534.31
2019-05-22T22:46:22.959Z,98539.22
2019-05-22T22:50:31.176Z,98535.67
2019-05-22T22:54:37.807Z,98531.78
2019-05-22T22:58:44.790Z,98537.23
2019-05-22T23:02:51.869Z,98538.63
2019-05-22T23:07:02.518Z,98537.11
2019-05-22T23:11:09.201Z,98546.09
2019-05-22T23:15:18.475Z,98544.20
2019-05-22T23:19:35.137Z,98541.89
2019-05-22T23:23:40.917Z,98547.07
2019-05-22T23:27:47.329Z,98545.00
2019-05-22T23:31:55.170Z,98552.02
2019-05-22T23:36:01.807Z,98548.28
2019-05-22T23:40:08.992Z,98549.52
2019-05-22T23:44:19.516Z,98546.88
2019-05-22T23:48:27.595Z,98546.05
2019-05-22T23:52:33.788Z,98536.82
2019-05-22T23:56:41.664Z,98536.61
